Aeroporto :
LOGIN :

Iscrizione | Disclaimer

   EN    FR    IT 

 










Sommario :    VFR   VFR Marginale   IFR   IFR Intensivo   IFR Molto Intensivo
Visibilità : 
Base nubi : 
>= 8 km
>= 3000ft
5 / 8 km
1000 / 3000 ft
1500m / 5 km
500 / 1000 ft
800 / 1500m
200 / 500 ft
< 800m
< 200 ft
Simboli :   Temporali  Nebbia  Neve Forte  Precipitazioni Forti  Vento > 20 kt
SIGMETs :   Varie  Temporali  Ghiacco  Turbolenza  Onda orograficha  Ceneri Vulcaniche






- Altitudine del aeroporto : 30 ft
- Codice IATA : CFN


EIDL - Donegal

ULTIMO METAR :
  • 231830Z 23012KT 6000 RA SCT007 OVC019 09/09 Q1008

METARs OBSOLETI :
  • 231800Z 23012KT 8000 -RA SCT007 BKN023 OVC029 10/09 Q1008 RERA
  • 231730Z 24013KT 7000 RA BKN006 OVC030 10/09 Q1008
  • 231600Z 23018KT 3700 RA FEW007 BKN030 OVC037 10/09 Q1009 RERA

TAF TAF EIDL
Valido dal 23 a 18 ore il 24 a 03 ore UTC


231700Z 2318/2403 23013KT 9999 BKN014
BECMG 2318/2320 FEW014 BKN025
TEMPO 2318/2320 4000 RA BKN007
PROB40
TEMPO 2323/2403 4000 -RA BKN012



MetMap, La meteo Aeronautica in un colpo d'occhio ! - Copyright ORBIFLY Dicembre 2007 - Disclaimer

ORBIFLY MET'MAP TEAM :

Programmazione e sviluppo : Alexandra Zaïnal
Concezione : Baudouin d'Aumeries
Aiuto per la programmazione : Marc-Olivier Méhu
Supporto tecnico e logistico : Manuel Goepfert
Aiuto per la traduzione : Arnaldo La Scala

Contatto : metmap@orbifly.com




FONTI E CREDITI :

   NOAA